Time;durP1;ratioP1;P1;durP2;ratioP2;P2;SDS_P1;SDS_P2;PMS_P1;PMS_P2;Temp;Humidity;BMP_temperature;BMP_pressure;BME280_temperature;BME280_humidity;BME280_pressure;Samples;Min_cycle;Max_cycle;Signal;HPM_P1;HPM_P2
2021/06/03 00:01:43;;;;;;;;;;;;;;;20.25;53.25;101292.94;5053199;28;19913;-79
2021/06/03 00:04:27;;;;;;;;;;;;;;;20.36;52.44;101296.75;5051114;28;20297;-80
2021/06/03 00:07:13;;;;;;;;;;;;;;;20.35;52.39;101299.88;5050668;28;19913;-82
2021/06/03 00:09:57;;;;;;;;;;;;;;;20.16;53.04;101300.69;5053474;28;20324;-80
2021/06/03 00:12:42;;;;;;;;;;;;;;;19.77;55.00;101296.31;5050301;28;20385;-80
2021/06/03 00:15:27;;;;;;;;;;;;;;;19.62;55.41;101298.78;5047612;28;19917;-81
2021/06/03 00:18:12;;;;;;;;;;;;;;;19.65;55.94;101297.28;5046126;28;19913;-81
2021/06/03 00:20:56;;;;;;;;;;;;;;;20.05;53.81;101299.66;5041978;28;19912;-81
2021/06/03 00:23:40;;;;;;;;;;;;;;;20.19;53.76;101302.69;5048190;28;20329;-81
2021/06/03 00:26:27;;;;;;;;;;;;;;;19.99;53.97;101303.88;5052574;28;19928;-81
2021/06/03 00:29:13;;;;;;;;;;;;;;;20.02;54.37;101305.91;5052738;28;19913;-79
2021/06/03 00:31:58;;;;;;;;;;;;;;;20.06;54.16;101306.78;5047055;28;19917;-81
2021/06/03 00:34:43;;;;;;;;;;;;;;;19.98;53.67;101310.56;5046365;28;19913;-81
2021/06/03 00:37:28;;;;;;;;;;;;;;;19.97;53.33;101306.19;5050349;28;19917;-82
2021/06/03 00:40:13;;;;;;;;;;;;;;;19.88;53.22;101309.19;5047335;28;19912;-81
2021/06/03 00:42:57;;;;;;;;;;;;;;;19.45;54.28;101317.75;5044773;28;19913;-81
2021/06/03 00:45:42;;;;;;;;;;;;;;;19.67;53.93;101318.97;5052622;28;19913;-80
2021/06/03 00:48:27;;;;;;;;;;;;;;;19.74;53.85;101313.63;5050415;28;19913;-81
2021/06/03 00:51:12;;;;;;;;;;;;;;;19.61;53.96;101322.03;5042644;28;19916;-80
2021/06/03 00:53:57;;;;;;;;;;;;;;;19.63;53.72;101319.72;5052245;28;19912;-82
2021/06/03 00:56:42;;;;;;;;;;;;;;;19.63;54.21;101328.00;5048768;28;19913;-84
2021/06/03 00:59:29;;;;;;;;;;;;;;;19.60;53.71;101325.97;5029529;28;19913;-81
2021/06/03 01:02:14;;;;;;;;;;;;;;;19.68;53.64;101321.38;5050016;28;19920;-80
2021/06/03 01:04:58;;;;;;;;;;;;;;;19.26;54.64;101318.44;5030023;28;19913;-83
2021/06/03 01:07:47;;;;;;;;;;;;;;;19.12;55.40;101329.16;5035540;28;20267;-84
2021/06/03 01:10:34;;;;;;;;;;;;;;;19.44;54.40;101332.66;5049418;28;20389;-81
2021/06/03 01:13:23;;;;;;;;;;;;;;;19.36;54.36;101328.13;5051522;28;19913;-82
2021/06/03 01:16:08;;;;;;;;;;;;;;;19.13;55.14;101322.47;5052248;28;19913;-81
2021/06/03 01:18:54;;;;;;;;;;;;;;;18.75;56.92;101321.16;5053232;28;19913;-83
2021/06/03 01:22:12;;;;;;;;;;;;;;;19.07;56.01;101319.19;5036039;28;19913;-81
2021/06/03 01:25:00;;;;;;;;;;;;;;;19.13;55.98;101316.97;5025470;28;20368;-81
2021/06/03 01:27:50;;;;;;;;;;;;;;;19.18;55.58;101322.22;5033203;28;20377;-81
2021/06/03 01:30:38;;;;;;;;;;;;;;;19.01;56.37;101326.13;5031746;28;19928;-80
2021/06/03 01:33:25;;;;;;;;;;;;;;;19.09;56.14;101324.38;5032069;28;19913;-82
2021/06/03 01:36:12;;;;;;;;;;;;;;;19.18;55.77;101325.78;5051355;28;19913;-78
2021/06/03 01:39:00;;;;;;;;;;;;;;;19.18;55.61;101325.78;5043835;28;19913;-79
2021/06/03 01:41:45;;;;;;;;;;;;;;;19.15;55.48;101323.72;5050468;28;19913;-79
2021/06/03 01:44:33;;;;;;;;;;;;;;;19.18;55.33;101323.00;5047395;28;19913;-79
2021/06/03 01:47:18;;;;;;;;;;;;;;;19.21;54.83;101324.25;5046089;28;19917;-79
2021/06/03 01:50:06;;;;;;;;;;;;;;;19.16;55.09;101319.00;5036416;28;20304;-80
2021/06/03 01:52:51;;;;;;;;;;;;;;;19.11;54.96;101322.84;5048716;28;20313;-78
2021/06/03 01:59:38;;;;;;;;;;;;;;;19.16;54.71;101328.06;5065761;28;19913;-81
2021/06/03 02:02:22;;;;;;;;;;;;;;;19.15;54.62;101326.47;5046268;28;19912;-81
2021/06/03 02:05:07;;;;;;;;;;;;;;;19.15;54.77;101318.19;5053893;28;20377;-81
2021/06/03 02:07:52;;;;;;;;;;;;;;;19.04;55.29;101330.94;5038770;28;19946;-82
2021/06/03 02:10:38;;;;;;;;;;;;;;;18.95;55.87;101324.81;5052052;28;19913;-80
2021/06/03 02:13:39;;;;;;;;;;;;;;;18.92;55.89;101328.28;5035363;28;19912;-80
2021/06/03 02:16:32;;;;;;;;;;;;;;;18.99;55.47;101327.66;5050068;28;19913;-80
2021/06/03 02:19:21;;;;;;;;;;;;;;;19.07;55.30;101330.22;5053497;28;19913;-82
2021/06/03 02:22:12;;;;;;;;;;;;;;;18.94;55.85;101334.25;5052126;28;19912;-80
2021/06/03 02:24:59;;;;;;;;;;;;;;;18.90;55.77;101321.50;5058433;28;19917;-81
2021/06/03 02:27:45;;;;;;;;;;;;;;;18.87;55.61;101325.78;5055364;28;19913;-82
2021/06/03 02:30:32;;;;;;;;;;;;;;;18.91;55.70;101323.13;5036585;28;19917;-82
2021/06/03 02:33:16;;;;;;;;;;;;;;;18.90;55.63;101332.53;5047728;28;19913;-80
2021/06/03 02:36:02;;;;;;;;;;;;;;;18.87;55.61;101330.50;5051295;28;19913;-80
2021/06/03 02:38:48;;;;;;;;;;;;;;;18.94;55.36;101328.75;5037027;28;19916;-80
2021/06/03 02:41:34;;;;;;;;;;;;;;;18.79;55.80;101335.06;5057217;28;19921;-80
2021/06/03 02:44:21;;;;;;;;;;;;;;;18.46;57.64;101337.28;5038000;28;19916;-82
2021/06/03 02:47:07;;;;;;;;;;;;;;;18.13;58.95;101338.38;5056459;28;19913;-80
2021/06/03 02:49:51;;;;;;;;;;;;;;;18.29;58.59;101332.91;5051111;28;19913;-80
2021/06/03 02:52:37;;;;;;;;;;;;;;;18.03;59.50;101333.34;5036195;28;19916;-80
2021/06/03 02:55:24;;;;;;;;;;;;;;;18.24;58.86;101327.66;5045300;28;19920;-81
2021/06/03 02:58:14;;;;;;;;;;;;;;;18.45;58.01;101339.25;5049703;28;19920;-80
2021/06/03 03:01:04;;;;;;;;;;;;;;;18.65;57.71;101343.75;5039895;28;19912;-81
2021/06/03 03:03:49;;;;;;;;;;;;;;;19.08;55.87;101347.56;5037277;28;19913;-78
2021/06/03 03:06:35;;;;;;;;;;;;;;;19.06;55.86;101345.16;5042139;28;19913;-82
2021/06/03 03:09:19;;;;;;;;;;;;;;;18.77;56.78;101349.19;5039009;28;19921;-82
2021/06/03 03:12:06;;;;;;;;;;;;;;;18.84;56.37;101347.75;5044924;28;19917;-82
2021/06/03 03:14:52;;;;;;;;;;;;;;;19.12;55.78;101340.19;5057887;28;19917;-82
2021/06/03 03:17:38;;;;;;;;;;;;;;;18.94;56.38;101341.72;5059012;28;19913;-83
2021/06/03 03:20:26;;;;;;;;;;;;;;;18.70;56.72;101335.22;5062207;28;19913;-82
2021/06/03 03:23:14;;;;;;;;;;;;;;;18.62;56.56;101332.63;5038662;28;19917;-80
2021/06/03 03:26:03;;;;;;;;;;;;;;;18.42;57.56;101337.19;5038625;28;19912;-80
2021/06/03 03:28:48;;;;;;;;;;;;;;;18.55;57.66;101344.25;5050765;28;19916;-81
2021/06/03 03:31:34;;;;;;;;;;;;;;;18.69;56.80;101344.63;5031675;28;19948;-82
2021/06/03 03:34:19;;;;;;;;;;;;;;;18.24;58.17;101344.16;5059587;28;19913;-81
2021/06/03 03:37:05;;;;;;;;;;;;;;;18.25;58.30;101354.84;5043236;28;19912;-82
2021/06/03 03:39:54;;;;;;;;;;;;;;;18.48;57.63;101355.06;5053561;28;19921;-80
2021/06/03 03:42:39;;;;;;;;;;;;;;;18.48;57.51;101355.06;5056349;28;20324;-81
2021/06/03 03:45:26;;;;;;;;;;;;;;;18.27;58.49;101354.50;5038520;28;20293;-81
2021/06/03 03:48:11;;;;;;;;;;;;;;;18.27;58.75;101357.25;5041801;28;19920;-81
2021/06/03 03:50:57;;;;;;;;;;;;;;;18.42;58.37;101359.22;5042484;28;19913;-83
2021/06/03 03:53:47;;;;;;;;;;;;;;;18.25;58.68;101365.03;5053454;28;19912;-82
2021/06/03 03:56:38;;;;;;;;;;;;;;;18.30;58.66;101373.84;5038493;28;19921;-82
2021/06/03 03:59:23;;;;;;;;;;;;;;;18.47;57.84;101380.22;5048859;28;19913;-81
2021/06/03 04:02:09;;;;;;;;;;;;;;;18.59;57.50;101374.69;5052689;28;19913;-83
2021/06/03 04:04:53;;;;;;;;;;;;;;;18.56;57.50;101365.16;5049283;28;19921;-81
2021/06/03 04:07:39;;;;;;;;;;;;;;;18.69;57.17;101380.44;5046505;28;19913;-81
2021/06/03 04:10:27;;;;;;;;;;;;;;;18.73;56.83;101373.09;5052021;28;19913;-80
2021/06/03 04:13:13;;;;;;;;;;;;;;;18.69;56.88;101380.44;5045474;28;20388;-79
2021/06/03 04:16:04;;;;;;;;;;;;;;;18.64;56.98;101375.19;5033817;28;19912;-84
2021/06/03 04:18:49;;;;;;;;;;;;;;;18.50;57.87;101373.97;5051019;28;19912;-80
2021/06/03 04:21:35;;;;;;;;;;;;;;;18.20;59.00;101379.88;5057360;28;19913;-81
2021/06/03 04:24:20;;;;;;;;;;;;;;;18.13;59.72;101381.63;5050701;28;19912;-82
2021/06/03 04:27:05;;;;;;;;;;;;;;;18.13;60.96;101389.88;5053860;28;19924;-80
2021/06/03 04:29:51;;;;;;;;;;;;;;;18.26;60.51;101391.44;5051001;28;20389;-82
2021/06/03 04:32:35;;;;;;;;;;;;;;;18.51;60.39;101392.13;5049143;28;19925;-80
2021/06/03 04:35:21;;;;;;;;;;;;;;;18.67;59.53;101392.97;5047404;28;19912;-82
2021/06/03 04:38:06;;;;;;;;;;;;;;;18.47;60.79;101400.28;5048303;28;20447;-81
2021/06/03 04:40:50;;;;;;;;;;;;;;;18.55;60.36;101401.31;5044621;28;19913;-79
2021/06/03 04:43:37;;;;;;;;;;;;;;;18.40;60.21;101391.81;5046740;28;19913;-81
2021/06/03 04:46:21;;;;;;;;;;;;;;;18.80;58.72;101400.81;5050052;28;19916;-81
2021/06/03 04:49:06;;;;;;;;;;;;;;;18.68;59.66;101406.41;5051986;28;20304;-80
2021/06/03 04:51:50;;;;;;;;;;;;;;;18.69;59.23;101396.19;5051136;28;19917;-81
2021/06/03 04:54:34;;;;;;;;;;;;;;;18.93;58.51;101398.78;5031172;28;20396;-79
2021/06/03 04:57:20;;;;;;;;;;;;;;;18.84;58.60;101403.69;5049788;28;19913;-78
2021/06/03 05:00:07;;;;;;;;;;;;;;;19.02;57.54;101406.88;5052649;28;20300;-78
2021/06/03 05:02:52;;;;;;;;;;;;;;;19.03;56.79;101408.50;5045956;28;19916;-78
2021/06/03 05:05:37;;;;;;;;;;;;;;;19.23;55.65;101415.69;5043241;28;19916;-80
2021/06/03 05:08:21;;;;;;;;;;;;;;;19.40;55.60;101415.31;5055337;28;19913;-82
2021/06/03 05:11:07;;;;;;;;;;;;;;;19.48;56.79;101408.03;5050241;28;19913;-78
2021/06/03 05:13:51;;;;;;;;;;;;;;;19.46;56.60;101415.88;5049355;28;19912;-82
2021/06/03 05:16:36;;;;;;;;;;;;;;;19.49;55.59;101407.69;5040938;28;19934;-79
2021/06/03 05:19:21;;;;;;;;;;;;;;;19.51;55.62;101410.88;5050957;28;20377;-78
2021/06/03 05:22:05;;;;;;;;;;;;;;;19.58;55.30;101411.06;5051944;28;19916;-78
2021/06/03 05:24:52;;;;;;;;;;;;;;;19.63;55.33;101419.06;5049558;28;19913;-79
2021/06/03 05:27:36;;;;;;;;;;;;;;;19.74;54.91;101419.31;5050551;28;19917;-78
2021/06/03 05:30:21;;;;;;;;;;;;;;;19.92;53.67;101414.16;5047782;28;20372;-78
2021/06/03 05:33:07;;;;;;;;;;;;;;;19.87;53.34;101415.25;5044647;28;19925;-78
2021/06/03 05:35:51;;;;;;;;;;;;;;;19.84;53.39;101421.50;5055544;28;19912;-80
2021/06/03 05:38:36;;;;;;;;;;;;;;;19.83;53.26;101419.88;5055154;28;19916;-81
2021/06/03 05:41:21;;;;;;;;;;;;;;;19.95;53.25;101425.28;5048120;28;21571;-79
2021/06/03 05:44:06;;;;;;;;;;;;;;;20.10;53.28;101425.59;5037991;28;19916;-79
2021/06/03 05:46:50;;;;;;;;;;;;;;;20.21;53.43;101419.13;5033568;28;20556;-78
2021/06/03 05:49:35;;;;;;;;;;;;;;;20.24;53.17;101418.41;5043816;28;19913;-78
2021/06/03 05:52:19;;;;;;;;;;;;;;;20.32;52.75;101425.69;5047270;28;19917;-81
2021/06/03 05:55:05;;;;;;;;;;;;;;;20.35;52.89;101421.41;5049089;28;19912;-80
2021/06/03 05:57:50;;;;;;;;;;;;;;;20.42;52.45;101427.06;5052007;28;19913;-81
2021/06/03 06:00:35;;;;;;;;;;;;;;;20.41;52.82;101431.81;5056431;28;20324;-80
2021/06/03 06:03:28;;;;;;;;;;;;;;;20.41;52.85;101426.28;5033509;28;19912;-82
2021/06/03 06:09:02;;;;;;;;;;;;;;;20.64;52.33;101429.09;5048115;28;19913;-79
2021/06/03 06:11:46;;;;;;;;;;;;;;;20.68;52.55;101426.38;5032991;28;20377;-79
2021/06/03 06:14:31;;;;;;;;;;;;;;;20.73;52.72;101428.84;5045946;28;19913;-78
2021/06/03 06:17:17;;;;;;;;;;;;;;;20.82;52.26;101429.44;5051017;28;19913;-82
2021/06/03 06:20:02;;;;;;;;;;;;;;;20.88;52.19;101427.94;5050279;28;19917;-79
2021/06/03 06:22:47;;;;;;;;;;;;;;;20.93;52.41;101431.22;5052153;28;19913;-79
2021/06/03 06:25:32;;;;;;;;;;;;;;;20.98;52.34;101435.63;5055821;28;19916;-79
2021/06/03 06:28:17;;;;;;;;;;;;;;;21.04;51.81;101436.94;5054685;28;19912;-79
2021/06/03 06:31:05;;;;;;;;;;;;;;;21.15;51.85;101434.38;5041108;28;19916;-81
2021/06/03 06:33:50;;;;;;;;;;;;;;;21.29;50.41;101443.72;5052135;28;19920;-79
2021/06/03 06:36:35;;;;;;;;;;;;;;;21.35;50.72;101444.22;5054844;28;19913;-78
2021/06/03 06:39:20;;;;;;;;;;;;;;;21.48;50.29;101453.91;5051860;28;19912;-79
2021/06/03 06:42:05;;;;;;;;;;;;;;;21.50;50.61;101459.06;5057116;28;19916;-79
2021/06/03 06:44:49;;;;;;;;;;;;;;;21.49;51.54;101463.00;5062633;28;19912;-80
2021/06/03 06:47:35;;;;;;;;;;;;;;;21.65;50.55;101458.13;5046194;28;20578;-79
2021/06/03 06:50:20;;;;;;;;;;;;;;;21.66;49.17;101462.50;5072224;28;19913;-78
2021/06/03 06:53:06;;;;;;;;;;;;;;;21.76;49.32;101464.63;5055857;28;19920;-80
2021/06/03 06:55:50;;;;;;;;;;;;;;;21.77;48.53;101457.91;5054385;28;19913;-79
2021/06/03 06:58:35;;;;;;;;;;;;;;;21.85;48.91;101467.13;5048498;28;19912;-79
2021/06/03 07:01:19;;;;;;;;;;;;;;;21.98;48.78;101463.81;5047574;28;19920;-79
2021/06/03 07:04:04;;;;;;;;;;;;;;;22.01;48.76;101465.81;5046756;28;19913;-78
2021/06/03 07:06:48;;;;;;;;;;;;;;;22.11;48.15;101467.94;5043223;28;19916;-82
2021/06/03 07:09:32;;;;;;;;;;;;;;;22.24;48.08;101473.25;5048022;28;19916;-77
2021/06/03 07:12:17;;;;;;;;;;;;;;;22.22;49.51;101467.28;5052189;28;19921;-78
2021/06/03 07:15:03;;;;;;;;;;;;;;;22.93;47.63;101469.72;5042173;28;20527;-80
2021/06/03 07:17:49;;;;;;;;;;;;;;;23.38;46.50;101465.78;5050832;28;19912;-79
2021/06/03 07:20:34;;;;;;;;;;;;;;;24.62;43.30;101482.44;5046967;28;19913;-79
2021/06/03 07:23:21;;;;;;;;;;;;;;;23.88;44.45;101475.31;5040851;28;19913;-79
2021/06/03 07:26:06;;;;;;;;;;;;;;;24.19;43.41;101473.13;5047331;28;20373;-80
2021/06/03 07:28:51;;;;;;;;;;;;;;;25.18;41.66;101475.44;5051809;28;19912;-79
2021/06/03 07:31:36;;;;;;;;;;;;;;;26.73;38.61;101475.13;5050202;28;19912;-80
2021/06/03 07:34:21;;;;;;;;;;;;;;;27.20;37.11;101475.66;5049022;28;19913;-79
2021/06/03 07:37:06;;;;;;;;;;;;;;;29.64;31.80;101481.06;5056882;28;19917;-81
2021/06/03 07:39:50;;;;;;;;;;;;;;;30.80;30.01;101482.00;5047076;28;19913;-79
2021/06/03 07:42:35;;;;;;;;;;;;;;;32.01;27.64;101480.56;5048441;28;19912;-81
2021/06/03 07:45:23;;;;;;;;;;;;;;;33.33;25.70;101488.69;5049303;28;20297;-82
2021/06/03 07:48:08;;;;;;;;;;;;;;;34.21;24.44;101496.94;5041720;28;20172;-82
2021/06/03 07:50:53;;;;;;;;;;;;;;;35.43;22.78;101497.38;5049669;28;19912;-82
2021/06/03 07:53:38;;;;;;;;;;;;;;;35.94;22.23;101496.81;5044782;28;20293;-84
2021/06/03 07:56:22;;;;;;;;;;;;;;;36.19;21.86;101498.56;5044403;28;19913;-80
2021/06/03 07:59:07;;;;;;;;;;;;;;;37.28;20.12;101507.50;5051670;28;19912;-81
2021/06/03 08:01:52;;;;;;;;;;;;;;;35.61;21.57;101505.09;5049773;28;19913;-82
2021/06/03 08:04:37;;;;;;;;;;;;;;;37.21;20.23;101501.41;5049943;28;19913;-81
2021/06/03 08:07:21;;;;;;;;;;;;;;;38.03;19.52;101506.56;5051324;28;20322;-84
2021/06/03 08:10:07;;;;;;;;;;;;;;;36.02;21.36;101496.03;5049985;28;19913;-79
2021/06/03 08:12:53;;;;;;;;;;;;;;;34.15;23.80;101498.72;5047539;28;19917;-79
2021/06/03 08:15:38;;;;;;;;;;;;;;;36.69;20.52;101497.06;5045632;28;19912;-79
2021/06/03 08:18:23;;;;;;;;;;;;;;;38.73;18.09;101506.78;5049545;28;19917;-79
2021/06/03 08:21:09;;;;;;;;;;;;;;;36.53;20.29;101500.22;5054743;28;20284;-79
2021/06/03 08:23:55;;;;;;;;;;;;;;;38.40;18.76;101502.06;5049051;28;19912;-80
2021/06/03 08:26:40;;;;;;;;;;;;;;;39.50;17.40;101501.53;5050093;28;19913;-81
2021/06/03 08:29:24;;;;;;;;;;;;;;;36.77;20.17;101503.97;5048036;28;19939;-79
2021/06/03 08:32:09;;;;;;;;;;;;;;;37.19;19.71;101501.91;5043107;28;19917;-80
2021/06/03 08:34:54;;;;;;;;;;;;;;;38.89;17.94;101509.16;5052921;28;19913;-81
2021/06/03 08:37:38;;;;;;;;;;;;;;;38.67;18.34;101503.84;5052378;28;19912;-80
2021/06/03 08:40:24;;;;;;;;;;;;;;;38.87;17.84;101505.97;5048070;28;19916;-80
2021/06/03 08:43:08;;;;;;;;;;;;;;;38.13;18.58;101493.06;5047551;28;19912;-81
2021/06/03 08:45:55;;;;;;;;;;;;;;;41.49;15.17;101506.78;5050263;28;19913;-81
2021/06/03 08:48:40;;;;;;;;;;;;;;;42.18;14.22;101508.06;5049182;28;20293;-83
2021/06/03 08:51:27;;;;;;;;;;;;;;;42.52;14.21;101508.88;5054561;28;19913;-83
2021/06/03 08:54:12;;;;;;;;;;;;;;;42.29;14.09;101512.25;5052154;28;20101;-84
2021/06/03 08:56:57;;;;;;;;;;;;;;;43.88;13.18;101517.50;5046867;28;19913;-83
2021/06/03 08:59:41;;;;;;;;;;;;;;;43.65;13.10;101513.94;5054473;28;19913;-82
2021/06/03 09:02:26;;;;;;;;;;;;;;;43.95;12.72;101519.78;5032633;28;20378;-81
2021/06/03 09:05:10;;;;;;;;;;;;;;;43.50;13.10;101519.19;5048858;28;20406;-79
2021/06/03 09:07:55;;;;;;;;;;;;;;;41.53;14.65;101497.97;5054410;28;19921;-86
2021/06/03 09:10:40;;;;;;;;;;;;;;;41.64;14.52;101500.88;5054224;28;19913;-79
2021/06/03 09:13:30;;;;;;;;;;;;;;;41.16;14.99;101503.72;5047057;28;19917;-83
2021/06/03 09:16:25;;;;;;;;;;;;;;;41.47;15.00;101500.78;5050672;28;19920;-80
2021/06/03 09:19:11;;;;;;;;;;;;;;;41.51;15.22;101492.75;5046182;28;19913;-78
2021/06/03 09:21:59;;;;;;;;;;;;;;;41.09;15.15;101487.88;5049277;28;19912;-84
2021/06/03 09:24:43;;;;;;;;;;;;;;;35.38;21.42;101483.84;5056383;28;19913;-81
2021/06/03 09:27:30;;;;;;;;;;;;;;;34.74;22.77;101477.94;5045677;28;19913;-83
2021/06/03 09:30:17;;;;;;;;;;;;;;;40.88;15.76;101492.09;5047774;28;19913;-85
2021/06/03 09:33:02;;;;;;;;;;;;;;;43.59;13.87;101503.78;5045316;28;19917;-85
2021/06/03 09:35:56;;;;;;;;;;;;;;;44.32;13.33;101496.38;5040907;28;19917;-85
2021/06/03 09:39:00;;;;;;;;;;;;;;;44.58;12.97;101490.94;5048295;28;19912;-82
2021/06/03 09:42:00;;;;;;;;;;;;;;;46.34;11.39;101500.03;5033530;28;19913;-82
2021/06/03 09:44:49;;;;;;;;;;;;;;;45.96;11.76;101501.41;5046657;28;19920;-82
2021/06/03 09:47:35;;;;;;;;;;;;;;;45.95;11.35;101500.63;5048603;28;19913;-80
2021/06/03 09:50:23;;;;;;;;;;;;;;;46.56;10.69;101501.78;5050978;28;19913;-81
2021/06/03 09:53:11;;;;;;;;;;;;;;;47.02;10.23;101496.78;5044001;28;19917;-83
2021/06/03 09:56:16;;;;;;;;;;;;;;;45.93;10.80;101483.13;5062661;28;20455;-85
2021/06/03 09:59:02;;;;;;;;;;;;;;;46.85;10.19;101494.19;5052800;28;19913;-83
2021/06/03 10:02:07;;;;;;;;;;;;;;;47.34;9.92;101490.94;5053478;28;19913;-84
2021/06/03 10:04:56;;;;;;;;;;;;;;;47.07;10.12;101493.81;5054642;28;19913;-82
2021/06/03 10:07:53;;;;;;;;;;;;;;;47.05;10.27;101490.69;5059406;28;19912;-84
2021/06/03 10:10:44;;;;;;;;;;;;;;;46.35;11.05;101477.78;5067684;28;19916;-84
2021/06/03 10:13:30;;;;;;;;;;;;;;;45.87;11.22;101479.56;5055934;28;19916;-82
2021/06/03 10:16:44;;;;;;;;;;;;;;;44.93;11.70;101478.59;5060245;28;19912;-85
2021/06/03 10:19:44;;;;;;;;;;;;;;;46.38;10.71;101479.56;5036176;28;19913;-86
2021/06/03 10:22:31;;;;;;;;;;;;;;;46.93;10.76;101488.59;5053728;28;19913;-85
2021/06/03 10:25:17;;;;;;;;;;;;;;;45.70;11.63;101479.00;5059410;28;19913;-84
2021/06/03 10:28:06;;;;;;;;;;;;;;;45.68;11.46;101478.00;5050496;28;19913;-84
2021/06/03 10:30:52;;;;;;;;;;;;;;;44.28;12.43;101467.97;5048784;28;19913;-82
2021/06/03 10:33:37;;;;;;;;;;;;;;;44.96;11.73;101468.13;5048775;28;20293;-84
2021/06/03 10:36:22;;;;;;;;;;;;;;;45.11;11.56;101468.50;5051894;28;19912;-86
2021/06/03 10:39:09;;;;;;;;;;;;;;;45.01;11.93;101470.94;5055055;28;19912;-84
2021/06/03 10:42:00;;;;;;;;;;;;;;;44.14;12.34;101462.59;5059461;28;20312;-85
2021/06/03 10:44:48;;;;;;;;;;;;;;;45.08;11.71;101458.88;5060049;28;20385;-83
2021/06/03 10:47:35;;;;;;;;;;;;;;;45.00;11.71;101462.88;5060459;28;19916;-82
2021/06/03 10:50:23;;;;;;;;;;;;;;;45.17;11.64;101459.81;5054009;28;19912;-83
2021/06/03 10:53:17;;;;;;;;;;;;;;;44.20;12.24;101449.75;5056007;28;19916;-85
2021/06/03 10:56:12;;;;;;;;;;;;;;;43.47;12.79;101458.03;5055565;28;19928;-84
2021/06/03 10:59:00;;;;;;;;;;;;;;;44.54;12.29;101450.28;5054709;28;20365;-84
2021/06/03 11:01:52;;;;;;;;;;;;;;;44.59;11.94;101446.56;5051992;28;19912;-83
2021/06/03 11:04:37;;;;;;;;;;;;;;;43.71;12.69;101440.16;5051103;28;19916;-82
2021/06/03 11:07:33;;;;;;;;;;;;;;;42.87;13.27;101436.06;5058770;28;19912;-81
2021/06/03 11:10:21;;;;;;;;;;;;;;;42.80;13.52;101428.78;5057093;28;19913;-81
2021/06/03 11:13:12;;;;;;;;;;;;;;;43.40;12.88;101440.56;5061984;28;19925;-80
2021/06/03 11:16:18;;;;;;;;;;;;;;;36.46;19.85;101421.22;5041919;28;20377;-83
2021/06/03 11:19:03;;;;;;;;;;;;;;;31.24;27.19;101410.31;5064224;28;20300;-84
2021/06/03 11:21:48;;;;;;;;;;;;;;;30.35;28.98;101408.75;5066782;28;19913;-84
2021/06/03 11:24:37;;;;;;;;;;;;;;;28.99;31.46;101409.69;5063123;28;19913;-84
2021/06/03 11:27:37;;;;;;;;;;;;;;;27.97;33.25;101403.47;5065428;28;20377;-84
2021/06/03 11:30:30;;;;;;;;;;;;;;;27.68;34.02;101391.03;5063920;28;19916;-83
2021/06/03 11:33:18;;;;;;;;;;;;;;;27.49;34.38;101398.81;5057589;28;19925;-82
2021/06/03 11:36:21;;;;;;;;;;;;;;;27.03;35.39;101399.19;5064856;28;19913;-83
2021/06/03 11:39:07;;;;;;;;;;;;;;;27.32;34.55;101385.00;5059093;28;19912;-80
2021/06/03 11:41:52;;;;;;;;;;;;;;;27.04;35.25;101386.81;5042463;28;19913;-81
2021/06/03 11:44:56;;;;;;;;;;;;;;;26.77;35.63;101378.22;5055849;28;19913;-82
2021/06/03 11:47:41;;;;;;;;;;;;;;;26.24;36.72;101386.94;5059255;28;19912;-83
2021/06/03 11:50:25;;;;;;;;;;;;;;;26.76;35.80;101375.84;5048246;28;19913;-82
2021/06/03 11:53:12;;;;;;;;;;;;;;;26.37;36.38;101376.09;5047071;28;19917;-80
2021/06/03 11:56:08;;;;;;;;;;;;;;;25.73;37.71;101376.34;5032636;28;19912;-83
2021/06/03 11:58:54;;;;;;;;;;;;;;;25.81;37.20;101361.19;5046056;28;19913;-80
2021/06/03 12:01:39;;;;;;;;;;;;;;;25.66;37.34;101364.41;5050829;28;19913;-81
2021/06/03 12:04:25;;;;;;;;;;;;;;;25.66;37.36;101367.19;5056317;28;19913;-81
2021/06/03 12:07:30;;;;;;;;;;;;;;;25.57;37.36;101362.06;5053202;28;19913;-81
2021/06/03 12:10:16;;;;;;;;;;;;;;;25.78;37.19;101362.00;5059063;28;19912;-83
2021/06/03 12:13:00;;;;;;;;;;;;;;;25.87;36.54;101353.19;5048703;28;19917;-82
2021/06/03 12:15:46;;;;;;;;;;;;;;;25.79;36.52;101362.78;5056399;28;19912;-82
2021/06/03 12:18:38;;;;;;;;;;;;;;;25.72;36.91;101360.03;5054071;28;19917;-83
2021/06/03 12:21:23;;;;;;;;;;;;;;;25.68;37.15;101345.31;5048619;28;19916;-83
2021/06/03 12:24:08;;;;;;;;;;;;;;;26.16;35.60;101348.31;5041927;28;19914;-82
2021/06/03 12:26:53;;;;;;;;;;;;;;;26.40;35.20;101341.81;5031256;28;19917;-80
2021/06/03 12:29:37;;;;;;;;;;;;;;;26.35;35.65;101339.47;5049387;28;19913;-79
2021/06/03 12:32:22;;;;;;;;;;;;;;;26.09;36.11;101346.34;5047587;28;19917;-78
2021/06/03 12:35:07;;;;;;;;;;;;;;;25.76;37.04;101341.28;5049310;28;20415;-82
2021/06/03 12:37:51;;;;;;;;;;;;;;;25.85;36.06;101334.09;5050778;28;19913;-80
2021/06/03 12:40:37;;;;;;;;;;;;;;;25.91;36.56;101340.84;5051992;28;19921;-82
2021/06/03 12:43:21;;;;;;;;;;;;;;;25.81;36.97;101338.09;5047565;28;19913;-78
2021/06/03 12:46:06;;;;;;;;;;;;;;;25.80;36.94;101333.75;5036139;28;19913;-81
2021/06/03 12:48:59;;;;;;;;;;;;;;;25.46;37.63;101320.28;5041519;28;19921;-79
2021/06/03 12:52:04;;;;;;;;;;;;;;;25.30;37.95;101325.47;5049297;28;19914;-79
2021/06/03 12:54:56;;;;;;;;;;;;;;;25.27;38.33;101319.91;5049857;28;19920;-78
2021/06/03 12:57:42;;;;;;;;;;;;;;;25.32;38.44;101322.31;5044286;28;19913;-79
2021/06/03 13:00:28;;;;;;;;;;;;;;;25.71;36.94;101305.50;5042471;28;19913;-80
2021/06/03 13:03:20;;;;;;;;;;;;;;;25.71;37.84;101313.84;5046701;28;19912;-80
2021/06/03 13:06:06;;;;;;;;;;;;;;;26.05;36.20;101314.13;5049963;28;20381;-78
2021/06/03 13:08:53;;;;;;;;;;;;;;;25.72;37.45;101312.66;5052200;28;20835;-80
2021/06/03 13:11:39;;;;;;;;;;;;;;;25.49;38.13;101308.34;5049467;28;19913;-82
2021/06/03 13:14:25;;;;;;;;;;;;;;;25.30;38.30;101307.97;5048573;28;19920;-83
2021/06/03 13:17:12;;;;;;;;;;;;;;;25.37;38.17;101305.97;5036503;28;20294;-81
2021/06/03 13:19:57;;;;;;;;;;;;;;;25.23;38.54;101303.22;5046154;28;19913;-82
2021/06/03 13:23:15;;;;;;;;;;;;;;;25.28;38.60;101299.25;5048156;28;20389;-82
2021/06/03 13:26:00;;;;;;;;;;;;;;;25.54;37.45;101299.56;5020966;28;19913;-83
2021/06/03 13:28:46;;;;;;;;;;;;;;;25.41;37.96;101295.63;5046750;28;19913;-80
2021/06/03 13:31:33;;;;;;;;;;;;;;;25.81;36.65;101288.72;5052273;28;19912;-82
2021/06/03 13:34:33;;;;;;;;;;;;;;;25.26;38.09;101291.28;5047534;28;19917;-81
2021/06/03 13:37:27;;;;;;;;;;;;;;;25.00;39.15;101295.31;5055083;28;19913;-80
2021/06/03 13:40:19;;;;;;;;;;;;;;;25.01;38.75;101284.97;5058175;28;19912;-79
2021/06/03 13:43:08;;;;;;;;;;;;;;;24.86;39.35;101289.72;5050474;28;20305;-79
2021/06/03 13:46:01;;;;;;;;;;;;;;;24.77;39.72;101283.78;5054506;28;19913;-79
2021/06/03 13:48:47;;;;;;;;;;;;;;;24.75;40.25;101282.56;5054553;28;20323;-80
2021/06/03 13:51:34;;;;;;;;;;;;;;;24.92;39.62;101276.25;5057204;28;19912;-80
2021/06/03 13:54:18;;;;;;;;;;;;;;;24.84;39.58;101272.63;5051551;28;20401;-80
2021/06/03 13:57:03;;;;;;;;;;;;;;;24.59;39.70;101244.03;5048644;28;19917;-84
2021/06/03 13:59:57;;;;;;;;;;;;;;;24.85;39.67;101273.41;5056983;28;20300;-81
2021/06/03 14:02:54;;;;;;;;;;;;;;;24.67;39.82;101268.69;5058447;28;19913;-81
2021/06/03 14:05:57;;;;;;;;;;;;;;;24.74;39.71;101259.53;5053399;28;19912;-82
2021/06/03 14:08:44;;;;;;;;;;;;;;;24.78;39.44;101265.91;5056449;28;19913;-81
2021/06/03 14:14:20;;;;;;;;;;;;;;;24.68;39.30;101261.94;5059440;28;19921;-85
2021/06/03 14:17:08;;;;;;;;;;;;;;;24.94;38.96;101254.38;5057683;28;19913;-81
2021/06/03 14:19:53;;;;;;;;;;;;;;;24.99;38.85;101253.97;5055183;28;19917;-85
2021/06/03 14:22:40;;;;;;;;;;;;;;;24.80;39.35;101259.91;5057021;28;19913;-85
2021/06/03 14:25:34;;;;;;;;;;;;;;;24.84;39.11;101252.38;5058454;28;20297;-84
2021/06/03 14:28:19;;;;;;;;;;;;;;;25.10;38.36;101254.72;5057389;28;20372;-84